WETTERDATEN

HEUTE
Time Temp. Taup. r.Fe. Windrich Windstärke Windböe Druck
00:05 2.5 -0.7 79 0 0 1013
00:15 2.5 -0.7 79 0 0 1013
00:26 2.4 -0.6 80 0 0 1013
00:36 2.4 -0.6 80 0 0 1013.1
00:45 2.4 -0.8 79 0 0 1013.3
00:55 2.3 -0.8 79 0 0 1013.3
01:06 2.3 -0.8 79 0 0 1013.6
01:16 2.2 -0.9 79 0 0 1013.9
01:25 2.1 -1 79 0 0 1014
01:36 2 -1.1 79 0 0 1013.9
01:46 1.8 -1.3 79 0 0 1013.9
01:57 1.7 -1.4 79 0 0 1014.3
02:11 1.4 -1.6 79 0 0 1014.3
02:20 1.2 -1.8 79 0 0 1014.6
02:30 1 -1.8 80 0 0 1014.7
02:40 0.8 -2 80 0 0 1014.9
02:51 0.7 -1.9 81 0 0 1015.1
03:00 0.5 -2.1 81 0 0 1015.3
03:10 0.5 -2 82 0 0 1015.4
03:21 0.6 -1.9 82 0 0 1015.6
03:31 0.7 -1.8 82 0 0 1015.6
03:40 0.7 -1.8 82 0 0 1015.7
04:01 0.7 -1.8 82 0 0 1015.8
04:20 0.8 -1.7 82 0 0 1016.1
04:31 0.9 -1.6 82 0 0 1016.3
04:41 0.9 -1.6 82 0 0 1016.4
04:51 0.9 -1.5 83 0 0 1016.5
05:01 0.9 -1.5 83 0 0 1016.7
05:11 0.9 -1.5 83 0 0 1016.7
05:27 0.7 -1.6 83 0 0 1017
05:36 0.6 -1.7 83 0 0 1017
05:47 0.5 -1.8 83 0 0 1017.2
05:57 0.3 -2 83 0 0 1017.4
06:07 0.1 -2.2 83 0 0 1017.8
06:17 0 -2.2 83 0 0 1017.9
06:27 0 -2.1 84 0 0 1018.2
06:37 0 -2.1 84 0 0 1018.4
06:47 0 -2.1 84 0 0 1018.6
06:57 0 -2 85 0 0 1018.7
07:07 0.1 -1.9 85 0 0 1018.9
07:17 0.1 -1.9 85 0 0 1019
07:27 0.2 -1.8 85 0 0 1019
07:37 0.2 -1.8 85 0 0 1019.2
07:47 0.2 -1.6 86 0 0 1019.4
07:57 0.2 -1.6 86 0 0 1019.7
08:07 0.3 -1.6 86 0 0 1019.8
08:17 0.3 -1.6 86 0 0 1019.9
08:27 0.3 -1.6 86 0 0 1019.8
08:38 0.2 -1.6 86 0 0 1020.1
08:47 0 -2 85 0 0 1020.3
08:57 0 -2 85 0 0 1020.4
09:08 -0.2 -2.2 85 0 0 1020.6
09:18 -0.2 -2 86 0 0 1020.7
09:27 -0.1 -1.9 86 0 0 1020.8
09:39 0.1 -1.7 86 0 0 1020.9
09:49 1.3 -0.4 88 0 0 1021.1
09:59 2.9 1 87 0 0 1021.3
10:09 4.2 1.7 84 0 0 1021.5
10:19 5.5 2.3 80 0 0 1021.5
10:29 6.3 2.9 79 0 0 1021.8
10:39 7.9 3.7 75 0 0 1021.8
10:49 9 3.6 69 0 0 1021.8
10:59 10.1 3.8 65 0 0 1021.8
11:09 10.9 4.1 63 0 0 1021.8
11:19 11.8 3.8 58 0 0 1021.9
11:22 12.3 4 57 0 0 1021.9
11:32 13.4 4 53 0 0 1021.8
11:42 14.3 4.3 51 0 0 1021.8
11:52 15.4 4.2 47 0 0 1021.8
12:03 15.7 2.8 42 0 0 1021.9
12:12 15.5 2.3 41 0 0 1021.9
12:22 15.7 2.2 40 0 0 1021.8
12:33 16.2 2.2 39 0 0 1021.9
12:43 16.1 1.4 37 0 0 1022
12:52 15.6 1 37 0 0 1022
13:02 16.2 2.2 39 0 0 1021.9

TAGESSTATISTIK

2019-01-18
TEMPERATUR
MITTEL
3.7
MAXIMUM
16.2
12:33
MINIMUM
-0.2
09:08
LUFTDRUCK
MITTEL
1018.2
MAXIMUM
1022.0
12:43
MINIMUM
1013.0
00:05
TAUPUNKT
MITTEL
-0.4
MAXIMUM
4.3
11:42
MINIMUM
-2.2
06:07
FEUCHTIGKEIT
MITTEL
76
MAXIMUM
88
09:49
MINIMUM
37
12:43
WINDSTÄRKE
MITTEL
0.0
MAXIMUM
0.0
12:12
WINDBÖE
MITTEL
0.0
MAXIMUM
0.0
12:12
WINDRICHTUNG
VORHERRSCHENDE
%
TEMPERATUR (°C)
MINIMUM
-0.2
MAXIMUM
16.2
MITTEL
3.7
LUFTDRUCK (hpa)
MINIMUM
1013.0
MAXIMUM
1022.0
MITTEL
1018.2
MESSGERÄT